createdAt,value
2023-04-10T00:00:46.788Z,21.90
2023-04-10T00:03:19.209Z,22.08
2023-04-10T00:05:49.721Z,22.04
2023-04-10T00:08:19.605Z,21.96
2023-04-10T00:10:50.105Z,22.10
2023-04-10T00:13:20.224Z,21.81
2023-04-10T00:15:51.885Z,21.50
2023-04-10T00:18:22.002Z,21.41
2023-04-10T00:20:52.751Z,21.32
2023-04-10T00:23:22.785Z,21.24
2023-04-10T00:25:52.582Z,21.19
2023-04-10T00:28:23.069Z,21.25
2023-04-10T00:30:53.063Z,21.19
2023-04-10T00:33:23.652Z,21.20
2023-04-10T00:35:53.733Z,21.19
2023-04-10T00:38:23.694Z,21.20
2023-04-10T00:40:54.134Z,21.16
2023-04-10T00:43:25.501Z,21.11
2023-04-10T00:45:56.537Z,21.06
2023-04-10T00:48:27.023Z,21.00
2023-04-10T00:50:57.536Z,21.03
2023-04-10T00:53:27.671Z,21.07
2023-04-10T00:55:58.851Z,21.11
2023-04-10T00:58:28.878Z,21.12
2023-04-10T01:00:59.417Z,21.02
2023-04-10T01:03:29.878Z,20.99
2023-04-10T01:06:29.360Z,21.01
2023-04-10T01:08:58.904Z,20.97
2023-04-10T01:11:43.347Z,20.88
2023-04-10T01:14:38.395Z,20.78
2023-04-10T01:17:20.561Z,20.84
2023-04-10T01:20:22.292Z,20.86
2023-04-10T01:23:13.395Z,20.72
2023-04-10T01:25:56.204Z,20.90
2023-04-10T01:29:01.474Z,20.85
2023-04-10T01:31:54.616Z,20.85
2023-04-10T01:34:33.830Z,20.86
2023-04-10T01:37:07.251Z,20.66
2023-04-10T01:39:43.072Z,20.64
2023-04-10T01:42:15.893Z,20.58
2023-04-10T01:44:48.396Z,20.55
2023-04-10T01:47:19.711Z,20.62
2023-04-10T01:49:50.509Z,20.58
2023-04-10T01:52:22.481Z,20.55
2023-04-10T01:55:03.030Z,20.51
2023-04-10T01:57:40.671Z,20.43
2023-04-10T02:00:11.764Z,20.46
2023-04-10T02:02:45.472Z,20.43
2023-04-10T02:05:18.215Z,20.45
2023-04-10T02:08:00.560Z,20.47
2023-04-10T02:10:46.516Z,20.45
2023-04-10T02:13:19.836Z,20.37
2023-04-10T02:15:53.690Z,20.32
2023-04-10T02:18:25.593Z,20.22
2023-04-10T02:20:56.919Z,20.18
2023-04-10T02:23:27.175Z,20.26
2023-04-10T02:25:58.304Z,20.22
2023-04-10T02:28:28.441Z,20.22
2023-04-10T02:30:59.801Z,20.24
2023-04-10T02:33:30.381Z,20.26
2023-04-10T02:36:02.681Z,20.24
2023-04-10T02:38:33.086Z,20.14
2023-04-10T02:41:03.603Z,19.99
2023-04-10T02:43:33.757Z,19.95
2023-04-10T02:46:04.328Z,19.93
2023-04-10T02:48:40.511Z,19.90
2023-04-10T02:51:10.942Z,19.92
2023-04-10T02:53:41.089Z,19.94
2023-04-10T02:56:12.996Z,19.94
2023-04-10T02:58:46.626Z,19.98
2023-04-10T03:01:17.866Z,19.93
2023-04-10T03:03:50.214Z,19.92
2023-04-10T03:06:29.118Z,19.87
2023-04-10T03:09:00.391Z,19.84
2023-04-10T03:11:31.709Z,19.86
2023-04-10T03:14:01.768Z,19.75
2023-04-10T03:16:32.537Z,19.68
2023-04-10T03:19:05.840Z,19.52
2023-04-10T03:21:36.337Z,19.48
2023-04-10T03:24:07.593Z,19.46
2023-04-10T03:26:38.092Z,19.48
2023-04-10T03:29:08.223Z,19.48
2023-04-10T03:31:38.763Z,19.62
2023-04-10T03:34:10.055Z,19.68
2023-04-10T03:36:40.537Z,19.82
2023-04-10T03:39:10.829Z,19.97
2023-04-10T03:41:41.454Z,19.97
2023-04-10T03:44:11.774Z,19.89
2023-04-10T03:46:42.275Z,19.68
2023-04-10T03:49:12.545Z,19.57
2023-04-10T03:51:43.034Z,19.58
2023-04-10T03:54:13.032Z,19.71
2023-04-10T03:56:43.480Z,19.67
2023-04-10T03:59:14.137Z,19.62
2023-04-10T04:01:44.767Z,19.57
2023-04-10T04:04:14.955Z,19.38
2023-04-10T04:07:08.661Z,19.32
2023-04-10T04:09:56.911Z,19.24
2023-04-10T04:12:47.359Z,19.23
2023-04-10T04:15:52.557Z,19.27
2023-04-10T04:18:39.955Z,19.36
2023-04-10T04:21:28.733Z,19.47
2023-04-10T04:24:15.217Z,19.51
2023-04-10T04:27:07.229Z,19.48
2023-04-10T04:30:05.658Z,19.51
2023-04-10T04:32:49.801Z,19.46
2023-04-10T04:35:34.872Z,19.46
2023-04-10T04:38:36.484Z,19.51
2023-04-10T04:41:25.217Z,19.68
2023-04-10T04:44:12.413Z,19.68
2023-04-10T04:47:05.564Z,19.62
2023-04-10T04:50:04.262Z,19.78
2023-04-10T04:53:01.647Z,19.94
2023-04-10T04:55:54.495Z,20.02
2023-04-10T04:58:43.427Z,19.84
2023-04-10T05:01:30.348Z,19.80
2023-04-10T05:04:21.857Z,19.96
2023-04-10T05:07:10.792Z,19.74
2023-04-10T05:09:49.925Z,19.96
2023-04-10T05:12:52.595Z,19.94
2023-04-10T05:15:37.201Z,19.58
2023-04-10T05:18:15.331Z,19.46
2023-04-10T05:21:00.985Z,19.32
2023-04-10T05:23:57.417Z,19.15
2023-04-10T05:26:39.350Z,19.22
2023-04-10T05:29:28.391Z,19.23
2023-04-10T05:32:16.551Z,19.09
2023-04-10T05:35:21.993Z,19.11
2023-04-10T05:38:02.385Z,19.14
2023-04-10T05:40:51.227Z,19.30
2023-04-10T05:43:38.935Z,19.33
2023-04-10T05:46:25.219Z,19.32
2023-04-10T05:49:09.236Z,19.29
2023-04-10T05:51:59.721Z,19.20
2023-04-10T05:54:55.713Z,19.47
2023-04-10T05:58:01.333Z,19.47
2023-04-10T06:00:52.828Z,19.33
2023-04-10T06:03:41.645Z,19.47
2023-04-10T06:06:12.091Z,19.48
2023-04-10T06:08:43.374Z,19.55
2023-04-10T06:11:13.448Z,19.73
2023-04-10T06:13:47.738Z,19.74
2023-04-10T06:16:18.645Z,19.73
2023-04-10T06:18:49.455Z,19.88
2023-04-10T06:21:19.580Z,19.86
2023-04-10T06:23:50.046Z,19.88
2023-04-10T06:26:21.623Z,19.88
2023-04-10T06:28:52.490Z,19.84
2023-04-10T06:31:25.845Z,19.74
2023-04-10T06:33:56.875Z,19.65
2023-04-10T06:36:28.218Z,19.63
2023-04-10T06:39:07.807Z,19.74
2023-04-10T06:41:37.746Z,19.56
2023-04-10T06:44:16.919Z,19.42
2023-04-10T06:46:47.471Z,19.27
2023-04-10T06:49:17.521Z,19.36
2023-04-10T06:51:49.367Z,19.25
2023-04-10T06:54:19.358Z,19.25
2023-04-10T06:56:50.057Z,19.21
2023-04-10T06:59:20.052Z,19.10
2023-04-10T07:01:50.517Z,19.15
2023-04-10T07:04:20.521Z,19.44
2023-04-10T07:06:50.880Z,19.51
2023-04-10T07:09:20.747Z,19.65
2023-04-10T07:11:51.175Z,19.75
2023-04-10T07:14:21.668Z,20.19
2023-04-10T07:16:52.363Z,20.25
2023-04-10T07:19:22.439Z,20.17
2023-04-10T07:21:53.198Z,19.90
2023-04-10T07:24:23.256Z,19.72
2023-04-10T07:26:53.922Z,19.58
2023-04-10T07:29:23.914Z,19.44
2023-04-10T07:31:53.777Z,19.33
2023-04-10T07:34:25.134Z,19.37
2023-04-10T07:36:55.118Z,19.28
2023-04-10T07:39:25.572Z,19.16
2023-04-10T07:41:56.473Z,19.06
2023-04-10T07:44:29.735Z,19.16
2023-04-10T07:47:00.150Z,19.22
2023-04-10T07:49:30.598Z,19.08
2023-04-10T07:52:00.563Z,19.06
2023-04-10T07:54:35.348Z,18.86
2023-04-10T07:57:05.407Z,18.69
2023-04-10T07:59:35.902Z,18.68
2023-04-10T08:02:06.919Z,18.75
2023-04-10T08:04:37.984Z,18.73
2023-04-10T08:07:08.164Z,18.61
2023-04-10T08:09:38.626Z,18.76
2023-04-10T08:12:08.637Z,18.98
2023-04-10T08:14:39.247Z,19.03
2023-04-10T08:17:15.574Z,19.16
2023-04-10T08:19:46.007Z,19.23
2023-04-10T08:22:16.544Z,19.32
2023-04-10T08:24:47.938Z,19.30
2023-04-10T08:27:18.072Z,19.37
2023-04-10T08:29:48.552Z,19.35
2023-04-10T08:32:18.593Z,19.49
2023-04-10T08:34:49.222Z,19.52
2023-04-10T08:37:20.861Z,19.56
2023-04-10T08:39:51.345Z,19.63
2023-04-10T08:42:21.557Z,19.64
2023-04-10T08:44:53.366Z,19.78
2023-04-10T08:47:25.989Z,19.89
2023-04-10T08:49:59.193Z,19.93
2023-04-10T08:52:35.577Z,19.92
2023-04-10T08:55:10.159Z,19.86
2023-04-10T08:57:42.836Z,19.82
2023-04-10T09:00:23.011Z,19.94
2023-04-10T09:02:59.111Z,20.08
2023-04-10T09:05:30.336Z,19.92
2023-04-10T09:08:00.314Z,19.98
2023-04-10T09:10:30.221Z,20.07
2023-04-10T09:13:00.752Z,20.08
2023-04-10T09:15:30.917Z,20.12
2023-04-10T09:18:02.493Z,20.17
2023-04-10T09:20:33.448Z,20.14
2023-04-10T09:23:20.862Z,20.17
2023-04-10T09:25:51.336Z,20.20
2023-04-10T09:28:21.880Z,20.36
2023-04-10T09:30:51.909Z,20.44
2023-04-10T09:33:31.267Z,20.39
2023-04-10T09:36:02.014Z,20.48
2023-04-10T09:38:32.493Z,20.67
2023-04-10T09:41:11.874Z,20.74
2023-04-10T09:43:44.554Z,20.81
2023-04-10T09:46:27.286Z,20.91
2023-04-10T09:49:06.249Z,20.88
2023-04-10T09:51:37.475Z,20.91
2023-04-10T09:54:08.064Z,21.09
2023-04-10T09:56:40.233Z,21.38
2023-04-10T09:59:11.491Z,21.41
2023-04-10T10:01:43.488Z,21.45
2023-04-10T10:04:18.420Z,21.40
2023-04-10T10:06:48.701Z,21.49
2023-04-10T10:09:19.196Z,21.75
2023-04-10T10:11:52.154Z,21.82
2023-04-10T10:14:23.707Z,22.13
2023-04-10T10:16:58.672Z,22.38
2023-04-10T10:19:47.532Z,22.62
2023-04-10T10:22:18.046Z,23.01
2023-04-10T10:24:50.461Z,23.07
2023-04-10T10:27:21.454Z,23.26
2023-04-10T10:29:55.776Z,23.60
2023-04-10T10:32:27.140Z,23.82
2023-04-10T10:34:58.795Z,24.02
2023-04-10T10:37:33.837Z,24.26
2023-04-10T10:40:21.960Z,24.58
2023-04-10T10:43:02.829Z,24.31
2023-04-10T10:45:39.037Z,24.81
2023-04-10T10:48:09.365Z,25.03
2023-04-10T10:50:59.177Z,25.12
2023-04-10T10:53:42.489Z,25.42
2023-04-10T10:56:25.008Z,25.69
2023-04-10T10:58:58.660Z,25.96
2023-04-10T11:01:29.704Z,26.08
2023-04-10T11:04:01.350Z,26.71
2023-04-10T11:06:52.445Z,27.29
2023-04-10T11:09:50.250Z,27.73
2023-04-10T11:12:25.718Z,28.56
2023-04-10T11:14:59.782Z,28.74
2023-04-10T11:17:51.169Z,29.54
2023-04-10T11:20:23.299Z,29.09
2023-04-10T11:23:15.134Z,30.03
2023-04-10T11:25:56.871Z,30.77
2023-04-10T11:28:38.291Z,31.33
2023-04-10T11:31:21.070Z,31.91
2023-04-10T11:33:54.701Z,32.55
2023-04-10T11:36:24.910Z,32.69
2023-04-10T11:39:14.266Z,32.63
2023-04-10T11:41:45.950Z,32.93
2023-04-10T11:44:22.249Z,33.29
2023-04-10T11:46:53.190Z,32.69
2023-04-10T11:49:42.932Z,31.34
2023-04-10T11:52:12.956Z,30.61
2023-04-10T11:54:50.352Z,31.13
2023-04-10T11:57:20.380Z,31.17
2023-04-10T11:59:53.896Z,31.74
2023-04-10T12:02:24.013Z,31.13
2023-04-10T12:05:03.362Z,31.72
2023-04-10T12:07:34.204Z,32.16
2023-04-10T12:10:04.573Z,32.27
2023-04-10T12:12:38.148Z,33.09
2023-04-10T12:15:28.140Z,33.41
2023-04-10T12:17:58.498Z,33.67
2023-04-10T12:20:30.925Z,33.91
2023-04-10T12:23:02.719Z,34.00
2023-04-10T12:25:33.152Z,34.58
2023-04-10T12:28:03.209Z,34.27
2023-04-10T12:30:33.716Z,34.72
2023-04-10T12:33:07.108Z,34.77
2023-04-10T12:35:43.549Z,35.02
2023-04-10T12:38:13.659Z,35.18
2023-04-10T12:41:02.912Z,35.07
2023-04-10T12:43:43.545Z,35.11
2023-04-10T12:46:27.317Z,34.26
2023-04-10T12:48:58.634Z,34.10
2023-04-10T12:52:07.717Z,34.70
2023-04-10T12:54:38.763Z,35.60
2023-04-10T12:57:09.505Z,35.70
2023-04-10T12:59:40.119Z,36.41
2023-04-10T13:02:10.599Z,36.79
2023-04-10T13:04:41.217Z,37.42
2023-04-10T13:07:11.760Z,37.45
2023-04-10T13:09:41.800Z,37.42
2023-04-10T13:12:13.335Z,37.89
2023-04-10T13:14:43.514Z,38.06
2023-04-10T13:17:14.066Z,37.58
2023-04-10T13:19:44.061Z,37.62
2023-04-10T13:22:14.588Z,36.87
2023-04-10T13:24:45.201Z,37.49
2023-04-10T13:27:16.008Z,37.94
2023-04-10T13:29:46.087Z,38.20
2023-04-10T13:32:16.726Z,38.48
2023-04-10T13:34:46.790Z,38.78
2023-04-10T13:37:17.225Z,38.12
2023-04-10T13:39:47.264Z,38.30
2023-04-10T13:42:17.756Z,38.62
2023-04-10T13:44:47.757Z,37.98
2023-04-10T13:47:18.140Z,37.21
2023-04-10T13:49:48.171Z,35.79
2023-04-10T13:52:18.601Z,34.61
2023-04-10T13:54:48.615Z,35.98
2023-04-10T13:57:18.982Z,36.83
2023-04-10T13:59:49.062Z,36.83
2023-04-10T14:02:19.600Z,37.41
2023-04-10T14:04:50.932Z,37.80
2023-04-10T14:07:21.307Z,38.50
2023-04-10T14:09:51.891Z,38.21
2023-04-10T14:12:24.205Z,38.73
2023-04-10T14:14:55.146Z,38.29
2023-04-10T14:17:25.816Z,38.63
2023-04-10T14:19:56.360Z,39.19
2023-04-10T14:22:26.357Z,39.62
2023-04-10T14:25:09.526Z,39.69
2023-04-10T14:27:46.739Z,39.40
2023-04-10T14:30:18.105Z,39.06
2023-04-10T14:32:48.171Z,40.14
2023-04-10T14:35:18.607Z,40.56
2023-04-10T14:37:48.976Z,41.14
2023-04-10T14:40:18.974Z,40.57
2023-04-10T14:42:49.391Z,40.62
2023-04-10T14:45:19.512Z,41.12
2023-04-10T14:47:50.080Z,41.08
2023-04-10T14:50:20.231Z,40.38
2023-04-10T14:52:50.784Z,40.47
2023-04-10T14:55:20.889Z,41.07
2023-04-10T14:57:51.392Z,41.34
2023-04-10T15:00:21.747Z,41.48
2023-04-10T15:02:52.626Z,41.87
2023-04-10T15:05:24.665Z,41.97
2023-04-10T15:07:56.133Z,40.52
2023-04-10T15:10:26.603Z,39.92
2023-04-10T15:12:57.039Z,39.45
2023-04-10T15:15:27.052Z,39.96
2023-04-10T15:17:57.509Z,40.59
2023-04-10T15:20:27.614Z,41.34
2023-04-10T15:22:59.636Z,41.62
2023-04-10T15:25:29.878Z,42.20
2023-04-10T15:28:01.900Z,42.16
2023-04-10T15:30:32.801Z,42.99
2023-04-10T15:33:03.327Z,42.74
2023-04-10T15:35:37.822Z,42.62
2023-04-10T15:38:09.987Z,42.43
2023-04-10T15:40:40.210Z,42.07
2023-04-10T15:43:10.696Z,41.58
2023-04-10T15:45:40.730Z,40.81
2023-04-10T15:48:11.310Z,41.17
2023-04-10T15:50:44.354Z,41.39
2023-04-10T15:53:14.779Z,41.82
2023-04-10T15:55:44.809Z,41.84
2023-04-10T15:58:15.300Z,41.52
2023-04-10T16:00:45.366Z,39.61
2023-04-10T16:03:16.274Z,39.53
2023-04-10T16:05:46.405Z,39.42
2023-04-10T16:08:16.195Z,39.80
2023-04-10T16:10:47.051Z,39.87
2023-04-10T16:13:17.156Z,39.11
2023-04-10T16:15:48.350Z,39.06
2023-04-10T16:18:18.376Z,40.03
2023-04-10T16:20:48.824Z,40.75
2023-04-10T16:23:18.779Z,40.83
2023-04-10T16:25:49.325Z,39.94
2023-04-10T16:28:19.298Z,40.46
2023-04-10T16:30:49.702Z,40.13
2023-04-10T16:33:19.685Z,39.57
2023-04-10T16:35:50.252Z,38.93
2023-04-10T16:38:20.306Z,38.58
2023-04-10T16:40:50.795Z,39.73
2023-04-10T16:43:21.583Z,39.72
2023-04-10T16:45:59.854Z,40.69
2023-04-10T16:48:29.931Z,40.15
2023-04-10T16:51:06.926Z,39.49
2023-04-10T16:53:37.588Z,39.40
2023-04-10T16:56:08.148Z,39.00
2023-04-10T16:58:39.217Z,38.06
2023-04-10T17:01:22.517Z,38.09
2023-04-10T17:03:52.804Z,38.28
2023-04-10T17:06:23.521Z,39.14
2023-04-10T17:08:53.756Z,38.53
2023-04-10T17:11:24.770Z,38.68
2023-04-10T17:13:54.878Z,39.70
2023-04-10T17:16:25.345Z,40.11
2023-04-10T17:18:55.504Z,40.38
2023-04-10T17:21:28.309Z,39.25
2023-04-10T17:23:58.386Z,39.38
2023-04-10T17:26:28.929Z,40.63
2023-04-10T17:28:59.458Z,39.81
2023-04-10T17:31:30.958Z,40.49
2023-04-10T17:34:01.135Z,41.09
2023-04-10T17:36:33.300Z,39.34
2023-04-10T17:39:03.276Z,38.62
2023-04-10T17:41:36.632Z,38.29
2023-04-10T17:44:06.794Z,37.63
2023-04-10T17:46:37.693Z,36.17
2023-04-10T17:49:07.814Z,35.58
2023-04-10T17:51:38.345Z,35.24
2023-04-10T17:54:08.383Z,34.88
2023-04-10T17:56:38.842Z,34.92
2023-04-10T17:59:08.822Z,35.48
2023-04-10T18:01:40.263Z,35.49
2023-04-10T18:04:10.543Z,35.51
2023-04-10T18:06:42.042Z,35.67
2023-04-10T18:09:12.658Z,35.48
2023-04-10T18:11:43.126Z,36.94
2023-04-10T18:14:13.247Z,37.53
2023-04-10T18:16:43.717Z,37.66
2023-04-10T18:19:13.722Z,37.98
2023-04-10T18:21:44.197Z,38.46
2023-04-10T18:24:15.198Z,38.83
2023-04-10T18:26:46.476Z,38.56
2023-04-10T18:29:16.572Z,38.07
2023-04-10T18:31:47.033Z,37.75
2023-04-10T18:34:18.287Z,37.74
2023-04-10T18:36:49.741Z,37.81
2023-04-10T18:39:20.171Z,37.62
2023-04-10T18:41:50.600Z,37.31
2023-04-10T18:44:20.659Z,37.88
2023-04-10T18:47:01.328Z,37.34
2023-04-10T18:49:34.205Z,36.85
2023-04-10T18:52:04.662Z,36.54
2023-04-10T18:54:35.920Z,35.56
2023-04-10T18:57:06.690Z,34.89
2023-04-10T18:59:39.093Z,34.34
2023-04-10T19:02:10.152Z,34.96
2023-04-10T19:04:40.384Z,35.56
2023-04-10T19:07:10.954Z,36.08
2023-04-10T19:09:40.984Z,36.91
2023-04-10T19:12:11.656Z,37.43
2023-04-10T19:14:42.106Z,37.92
2023-04-10T19:17:11.936Z,37.97
2023-04-10T19:19:42.950Z,37.91
2023-04-10T19:22:13.007Z,37.92
2023-04-10T19:24:42.822Z,37.69
2023-04-10T19:27:13.429Z,37.52
2023-04-10T19:29:43.391Z,37.36
2023-04-10T19:32:13.843Z,37.51
2023-04-10T19:34:43.824Z,37.38
2023-04-10T19:37:14.276Z,36.70
2023-04-10T19:39:45.096Z,36.33
2023-04-10T19:42:16.465Z,35.99
2023-04-10T19:44:46.578Z,35.86
2023-04-10T19:47:19.056Z,35.02
2023-04-10T19:49:49.106Z,34.72
2023-04-10T19:52:19.572Z,34.70
2023-04-10T19:54:49.659Z,34.62
2023-04-10T19:57:20.218Z,34.47
2023-04-10T19:59:50.262Z,34.71
2023-04-10T20:02:20.996Z,34.92
2023-04-10T20:04:51.348Z,35.13
2023-04-10T20:07:21.952Z,35.31
2023-04-10T20:09:52.184Z,34.96
2023-04-10T20:12:22.680Z,34.28
2023-04-10T20:14:52.679Z,33.77
2023-04-10T20:17:23.308Z,33.40
2023-04-10T20:19:53.332Z,32.87
2023-04-10T20:22:23.873Z,32.97
2023-04-10T20:24:53.968Z,32.69
2023-04-10T20:27:25.946Z,32.51
2023-04-10T20:29:56.540Z,32.57
2023-04-10T20:32:27.938Z,32.74
2023-04-10T20:34:57.938Z,32.79
2023-04-10T20:37:28.399Z,32.82
2023-04-10T20:39:58.400Z,32.76
2023-04-10T20:42:28.919Z,32.80
2023-04-10T20:44:58.915Z,32.69
2023-04-10T20:47:30.882Z,32.58
2023-04-10T20:50:01.025Z,32.22
2023-04-10T20:52:31.575Z,31.79
2023-04-10T20:55:01.680Z,31.28
2023-04-10T20:57:32.179Z,30.94
2023-04-10T21:00:02.288Z,30.63
2023-04-10T21:02:32.913Z,30.42
2023-04-10T21:05:03.067Z,30.28
2023-04-10T21:07:33.625Z,30.07
2023-04-10T21:10:04.860Z,29.36
2023-04-10T21:12:35.339Z,28.43
2023-04-10T21:15:05.352Z,28.13
2023-04-10T21:17:35.838Z,28.11
2023-04-10T21:20:06.118Z,27.78
2023-04-10T21:22:36.609Z,27.77
2023-04-10T21:25:06.970Z,27.70
2023-04-10T21:27:37.479Z,27.62
2023-04-10T21:30:07.862Z,27.68
2023-04-10T21:32:38.386Z,27.63
2023-04-10T21:35:09.518Z,27.46
2023-04-10T21:37:39.947Z,27.36
2023-04-10T21:40:10.404Z,27.21
2023-04-10T21:42:41.018Z,27.15
2023-04-10T21:45:16.757Z,27.02
2023-04-10T21:47:47.247Z,26.97
2023-04-10T21:50:17.354Z,26.87
2023-04-10T21:52:48.422Z,26.72
2023-04-10T21:55:18.662Z,26.59
2023-04-10T21:57:49.107Z,26.45
2023-04-10T22:00:20.642Z,26.25
2023-04-10T22:02:53.697Z,26.04
2023-04-10T22:05:25.346Z,25.86
2023-04-10T22:07:56.639Z,25.67
2023-04-10T22:10:26.664Z,25.50
2023-04-10T22:12:57.107Z,25.41
2023-04-10T22:15:27.893Z,25.27
2023-04-10T22:17:58.366Z,25.18
2023-04-10T22:20:28.361Z,25.19
2023-04-10T22:22:58.856Z,25.24
2023-04-10T22:25:28.916Z,25.24
2023-04-10T22:27:59.644Z,25.31
2023-04-10T22:30:29.622Z,25.37
2023-04-10T22:32:59.547Z,25.37
2023-04-10T22:35:30.152Z,25.29
2023-04-10T22:38:00.207Z,25.07
2023-04-10T22:40:31.023Z,24.85
2023-04-10T22:43:01.037Z,24.64
2023-04-10T22:45:31.445Z,24.43
2023-04-10T22:48:01.481Z,24.24
2023-04-10T22:50:32.871Z,24.13
2023-04-10T22:53:02.918Z,24.12
2023-04-10T22:55:33.362Z,24.00
2023-04-10T22:58:03.391Z,24.09
2023-04-10T23:00:35.721Z,24.06
2023-04-10T23:03:05.891Z,23.90
2023-04-10T23:05:36.339Z,23.86
2023-04-10T23:08:07.022Z,23.88
2023-04-10T23:10:37.484Z,23.91
2023-04-10T23:13:07.530Z,23.87
2023-04-10T23:15:38.237Z,23.86
2023-04-10T23:18:08.441Z,23.81
2023-04-10T23:20:38.917Z,23.76
2023-04-10T23:23:09.003Z,23.75
2023-04-10T23:25:39.385Z,23.75
2023-04-10T23:28:09.541Z,23.70
2023-04-10T23:30:41.036Z,23.73
2023-04-10T23:33:12.043Z,23.75
2023-04-10T23:35:42.603Z,23.71
2023-04-10T23:38:12.682Z,23.66
2023-04-10T23:40:43.135Z,23.58
2023-04-10T23:43:13.269Z,23.62
2023-04-10T23:45:43.711Z,23.69
2023-04-10T23:48:13.807Z,23.85
2023-04-10T23:50:44.212Z,23.84
2023-04-10T23:53:14.666Z,23.97
2023-04-10T23:55:45.427Z,23.55
2023-04-10T23:58:15.473Z,23.21
